Time;durP1;ratioP1;P1;durP2;ratioP2;P2;SDS_P1;SDS_P2;PMS_P1;PMS_P2;Temp;Humidity;BMP_temperature;BMP_pressure;BME280_temperature;BME280_humidity;BME280_pressure;Samples;Min_cycle;Max_cycle;Signal;HPM_P1;HPM_P2
2024/01/20 00:00:17;;;;;;;49.97;29.95;;;-0.80;99.90;;;;;;3129420;28;20207;-74
2024/01/20 00:01:48;;;;;;;43.33;28.73;;;-0.80;99.90;;;;;;3129927;28;20053;-75
2024/01/20 00:03:19;;;;;;;44.60;32.33;;;-0.80;99.90;;;;;;3129290;28;20064;-75
2024/01/20 00:04:50;;;;;;;40.35;30.17;;;-0.80;99.90;;;;;;3152484;28;20282;-74
2024/01/20 00:06:21;;;;;;;42.78;34.20;;;-0.80;99.90;;;;;;3132773;28;20036;-75
2024/01/20 00:07:52;;;;;;;34.65;26.83;;;-0.10;99.90;;;;;;3104214;28;20247;-72
2024/01/20 00:09:23;;;;;;;39.85;28.98;;;0.10;99.90;;;;;;3129072;28;20044;-75
2024/01/20 00:10:53;;;;;;;51.03;31.65;;;-0.70;99.90;;;;;;3116197;28;20319;-75
2024/01/20 00:12:24;;;;;;;47.70;28.33;;;-0.40;99.90;;;;;;3116375;28;20034;-75
2024/01/20 00:13:55;;;;;;;47.05;27.77;;;-0.70;99.90;;;;;;3124545;28;20045;-74
2024/01/20 00:15:26;;;;;;;33.05;28.02;;;-0.80;99.90;;;;;;3128047;28;20029;-74
2024/01/20 00:16:57;;;;;;;38.70;29.65;;;-0.80;99.90;;;;;;3124500;28;20025;-75
2024/01/20 00:18:27;;;;;;;35.95;26.75;;;-0.80;99.90;;;;;;3128613;28;20315;-75
2024/01/20 00:19:58;;;;;;;39.47;28.50;;;-0.70;99.90;;;;;;3120452;28;20064;-74
2024/01/20 00:21:29;;;;;;;38.90;30.15;;;-0.80;99.90;;;;;;3125021;28;20311;-75
2024/01/20 00:23:00;;;;;;;38.88;28.67;;;-0.30;99.90;;;;;;3128577;28;20073;-74
2024/01/20 00:24:31;;;;;;;41.97;29.10;;;-0.80;99.90;;;;;;3148294;28;20052;-74
2024/01/20 00:26:03;;;;;;;42.17;30.67;;;-0.10;99.90;;;;;;3132926;28;20029;-76
2024/01/20 00:27:34;;;;;;;34.33;26.50;;;-0.70;99.90;;;;;;3129120;28;20243;-76
2024/01/20 00:29:06;;;;;;;39.08;29.42;;;-0.80;99.90;;;;;;3129084;28;20060;-77
2024/01/20 00:30:37;;;;;;;37.90;27.88;;;-0.70;99.90;;;;;;3128744;28;20033;-73
2024/01/20 00:32:07;;;;;;;50.63;32.42;;;-0.80;99.90;;;;;;3129189;28;20043;-75
2024/01/20 00:33:38;;;;;;;43.15;29.52;;;-0.40;99.90;;;;;;3128588;28;20036;-75
2024/01/20 00:35:09;;;;;;;38.40;27.75;;;-0.80;99.90;;;;;;3127988;28;20028;-75
2024/01/20 00:36:40;;;;;;;59.63;29.10;;;-0.80;99.90;;;;;;3140799;28;20016;-75
2024/01/20 00:38:11;;;;;;;35.15;26.50;;;-0.80;99.90;;;;;;3133242;28;20053;-73
2024/01/20 00:39:42;;;;;;;45.92;30.02;;;-0.60;99.90;;;;;;3140835;28;20092;-73
2024/01/20 00:41:12;;;;;;;45.58;28.02;;;-0.80;99.90;;;;;;3120338;28;20018;-73
2024/01/20 00:42:43;;;;;;;31.63;26.15;;;-0.80;99.90;;;;;;3132762;28;20313;-74
2024/01/20 00:44:14;;;;;;;35.65;27.13;;;0.30;99.90;;;;;;3133158;28;20029;-74
2024/01/20 00:45:46;;;;;;;37.53;28.13;;;-0.80;99.90;;;;;;3128483;28;20049;-74
2024/01/20 00:47:16;;;;;;;37.25;28.73;;;-0.70;99.90;;;;;;3128464;28;20361;-73
2024/01/20 00:48:47;;;;;;;37.90;26.58;;;-0.70;99.90;;;;;;3108341;28;20034;-73
2024/01/20 00:50:18;;;;;;;37.42;28.98;;;-0.80;99.90;;;;;;3124567;28;20013;-73
2024/01/20 00:51:49;;;;;;;41.47;29.80;;;-0.70;99.90;;;;;;3120798;28;20053;-74
2024/01/20 00:53:20;;;;;;;50.13;32.83;;;-0.80;99.90;;;;;;3128548;28;20029;-75
2024/01/20 00:54:51;;;;;;;36.13;26.05;;;-0.80;99.90;;;;;;3119011;28;20033;-74
2024/01/20 00:56:22;;;;;;;35.33;25.10;;;0.00;99.90;;;;;;3137088;28;20020;-74
2024/01/20 00:57:53;;;;;;;45.72;29.83;;;-0.80;99.90;;;;;;3134319;28;20029;-76
2024/01/20 00:59:24;;;;;;;44.42;29.23;;;0.10;99.90;;;;;;3118657;28;20358;-75
2024/01/20 01:00:54;;;;;;;38.38;27.75;;;-0.80;99.90;;;;;;3127141;28;20059;-75
2024/01/20 01:02:25;;;;;;;43.45;26.80;;;-0.80;99.90;;;;;;3130987;28;20045;-74
2024/01/20 01:03:56;;;;;;;37.08;28.92;;;-0.80;99.90;;;;;;3131580;28;20021;-74
2024/01/20 01:05:27;;;;;;;40.22;27.00;;;-0.80;99.90;;;;;;3141889;28;20052;-74
2024/01/20 01:06:58;;;;;;;33.20;27.42;;;-0.80;99.90;;;;;;3118203;28;20054;-75
2024/01/20 01:08:29;;;;;;;49.08;28.15;;;-0.80;99.90;;;;;;3126968;28;20211;-74
2024/01/20 01:10:00;;;;;;;40.22;27.88;;;-0.80;99.90;;;;;;3143418;28;20025;-73
2024/01/20 01:11:31;;;;;;;43.15;29.38;;;-0.80;99.90;;;;;;3130515;28;20033;-75
2024/01/20 01:13:02;;;;;;;41.25;30.38;;;-0.70;99.90;;;;;;3131164;28;20037;-75
2024/01/20 01:14:33;;;;;;;32.40;23.50;;;-0.70;99.90;;;;;;3142082;28;20040;-74
2024/01/20 01:16:05;;;;;;;30.45;24.92;;;-0.70;99.90;;;;;;3135166;28;20037;-74
2024/01/20 01:17:36;;;;;;;34.95;28.40;;;-0.70;99.90;;;;;;3130243;28;20095;-73
2024/01/20 01:19:07;;;;;;;37.40;28.10;;;-0.80;99.90;;;;;;3131153;28;20239;-73
2024/01/20 01:20:37;;;;;;;32.58;23.88;;;-0.60;99.90;;;;;;3130506;28;20038;-74
2024/01/20 01:22:08;;;;;;;32.03;26.45;;;-0.80;99.90;;;;;;3114394;28;20267;-73
2024/01/20 01:23:39;;;;;;;45.70;31.73;;;-0.40;99.90;;;;;;3122292;28;20020;-74
2024/01/20 01:25:10;;;;;;;40.78;25.42;;;-0.80;99.90;;;;;;3129831;28;20027;-73
2024/01/20 01:26:41;;;;;;;41.03;27.60;;;-0.40;99.90;;;;;;3142752;28;20021;-74
2024/01/20 01:28:11;;;;;;;33.50;26.83;;;-0.10;99.90;;;;;;3135063;28;20310;-73
2024/01/20 01:29:42;;;;;;;31.17;24.52;;;-0.80;99.90;;;;;;3142787;28;20092;-73
2024/01/20 01:31:13;;;;;;;30.55;25.60;;;0.20;99.90;;;;;;3134472;28;20033;-73
2024/01/20 01:32:43;;;;;;;40.80;26.30;;;-0.70;99.90;;;;;;3130729;28;20039;-74
2024/01/20 01:34:14;;;;;;;39.67;26.48;;;-0.70;99.90;;;;;;3134151;28;20037;-76
2024/01/20 01:35:45;;;;;;;33.15;28.20;;;-0.70;99.90;;;;;;3105652;28;20015;-73
2024/01/20 01:37:16;;;;;;;38.97;27.02;;;-0.40;99.90;;;;;;3114208;28;20040;-75
2024/01/20 01:38:46;;;;;;;44.88;28.33;;;-0.70;99.90;;;;;;3118904;28;20085;-73
2024/01/20 01:40:17;;;;;;;38.42;26.52;;;-0.70;99.90;;;;;;3130421;28;20025;-72
2024/01/20 01:41:48;;;;;;;45.22;28.52;;;-0.70;99.90;;;;;;3125764;28;20307;-75
2024/01/20 01:43:19;;;;;;;34.15;27.65;;;-0.10;99.90;;;;;;3142734;28;20025;-74
2024/01/20 01:44:50;;;;;;;34.58;25.00;;;-0.70;99.90;;;;;;3132915;28;20029;-74
2024/01/20 01:46:21;;;;;;;38.83;28.55;;;0.00;99.90;;;;;;3130938;28;20029;-73
2024/01/20 01:47:55;;;;;;;47.10;26.90;;;-0.70;99.90;;;;;;3131122;28;20025;-73
2024/01/20 01:49:26;;;;;;;45.65;25.77;;;-0.40;99.90;;;;;;3130137;28;20202;-73
2024/01/20 01:50:57;;;;;;;35.72;26.67;;;-0.80;99.90;;;;;;3130859;28;20020;-73
2024/01/20 01:52:29;;;;;;;52.65;30.55;;;-0.70;99.90;;;;;;3142517;28;20044;-73
2024/01/20 01:54:04;;;;;;;39.08;28.65;;;0.00;99.90;;;;;;3129878;28;20330;-74
2024/01/20 01:55:36;;;;;;;39.67;28.48;;;-0.80;99.90;;;;;;3138084;28;20310;-74
2024/01/20 01:57:09;;;;;;;43.75;27.80;;;-0.80;99.90;;;;;;3130148;28;20022;-74
2024/01/20 01:58:43;;;;;;;37.95;28.48;;;-0.80;99.90;;;;;;3130521;28;20262;-74
2024/01/20 02:00:13;;;;;;;34.65;26.92;;;-0.70;99.90;;;;;;3130183;28;20033;-74
2024/01/20 02:01:44;;;;;;;51.63;26.75;;;-0.70;99.90;;;;;;3138309;28;20033;-74
2024/01/20 02:03:16;;;;;;;37.88;26.10;;;-0.70;99.90;;;;;;3132760;28;20263;-74
2024/01/20 02:04:47;;;;;;;40.28;27.65;;;-0.50;99.90;;;;;;3127907;28;20041;-73
2024/01/20 02:06:18;;;;;;;38.83;25.08;;;-0.80;99.90;;;;;;3118430;28;20022;-75
2024/01/20 02:07:49;;;;;;;38.78;26.20;;;-0.80;99.90;;;;;;3142254;28;20033;-73
2024/01/20 02:09:21;;;;;;;30.98;26.25;;;-0.80;99.90;;;;;;3116931;28;20021;-73
2024/01/20 02:10:52;;;;;;;28.08;23.65;;;-0.80;99.90;;;;;;3121938;28;20093;-73
2024/01/20 02:12:23;;;;;;;37.50;25.55;;;-0.80;99.90;;;;;;3130303;28;20033;-73
2024/01/20 02:13:54;;;;;;;29.95;23.25;;;-0.80;99.90;;;;;;3142469;28;20349;-74
2024/01/20 02:15:26;;;;;;;33.70;25.33;;;-0.80;99.90;;;;;;3132644;28;20006;-74
2024/01/20 02:16:57;;;;;;;42.28;26.35;;;-0.80;99.90;;;;;;3125710;28;20040;-74
2024/01/20 02:18:29;;;;;;;38.70;26.55;;;-0.70;99.90;;;;;;3129924;28;20032;-74
2024/01/20 02:20:00;;;;;;;36.20;24.75;;;-0.80;99.90;;;;;;3129989;28;20036;-74
2024/01/20 02:21:32;;;;;;;34.78;25.30;;;-0.80;99.90;;;;;;3141883;28;20025;-73
2024/01/20 02:23:03;;;;;;;38.95;27.10;;;0.50;99.90;;;;;;3134333;28;20036;-74
2024/01/20 02:24:35;;;;;;;32.13;23.90;;;-0.80;99.90;;;;;;3128498;28;20032;-73
2024/01/20 02:26:06;;;;;;;33.00;23.80;;;-0.70;99.90;;;;;;3150336;28;20039;-74
2024/01/20 02:27:37;;;;;;;36.72;25.48;;;-0.80;99.90;;;;;;3121322;28;20064;-73
2024/01/20 02:29:08;;;;;;;36.03;26.92;;;-0.90;99.90;;;;;;3126112;28;20079;-76
2024/01/20 02:30:41;;;;;;;40.40;25.98;;;-0.80;99.90;;;;;;3129564;28;20079;-73
2024/01/20 02:32:11;;;;;;;41.15;27.05;;;-0.70;99.90;;;;;;3137907;28;20041;-75
2024/01/20 02:33:42;;;;;;;35.03;27.13;;;-0.60;99.90;;;;;;3129595;28;20291;-75
2024/01/20 02:35:13;;;;;;;41.58;25.50;;;-0.70;99.90;;;;;;3127706;28;20029;-74
2024/01/20 02:36:45;;;;;;;39.40;25.50;;;-0.70;99.90;;;;;;3121062;28;20096;-75
2024/01/20 02:38:15;;;;;;;32.60;24.42;;;0.10;99.90;;;;;;3125281;28;20022;-74
2024/01/20 02:39:46;;;;;;;44.28;27.33;;;-0.70;99.90;;;;;;3130129;28;20272;-74
2024/01/20 02:41:17;;;;;;;26.30;22.08;;;-0.70;99.90;;;;;;3130242;28;20025;-74
2024/01/20 02:42:48;;;;;;;28.88;25.85;;;0.10;99.90;;;;;;3104631;28;20022;-75
2024/01/20 02:44:19;;;;;;;30.35;24.40;;;-0.70;99.90;;;;;;3121920;28;20052;-74
2024/01/20 02:45:49;;;;;;;36.55;27.83;;;-0.70;99.90;;;;;;3115616;28;20371;-74
2024/01/20 02:47:20;;;;;;;38.22;24.45;;;-0.60;99.90;;;;;;3125728;28;20028;-74
2024/01/20 02:48:51;;;;;;;29.80;22.48;;;-0.70;99.90;;;;;;3130100;28;20026;-74
2024/01/20 02:50:22;;;;;;;38.22;24.25;;;-0.40;99.90;;;;;;3130218;28;20052;-75
2024/01/20 02:51:52;;;;;;;35.08;27.50;;;-0.70;99.90;;;;;;3141478;28;20036;-74
2024/01/20 02:53:25;;;;;;;40.60;30.50;;;-0.70;99.90;;;;;;3133757;28;20421;-74
2024/01/20 02:54:56;;;;;;;47.40;29.65;;;-0.70;99.90;;;;;;3128890;28;20037;-74
2024/01/20 02:56:26;;;;;;;30.17;25.63;;;-0.30;99.90;;;;;;3130096;28;20042;-75
2024/01/20 02:57:57;;;;;;;44.47;29.02;;;-0.80;99.90;;;;;;3128961;28;20029;-76
2024/01/20 02:59:28;;;;;;;36.25;24.60;;;-0.10;99.90;;;;;;3112858;28;20037;-74
2024/01/20 03:01:00;;;;;;;50.10;26.25;;;-0.80;99.90;;;;;;3124782;28;20017;-75
2024/01/20 03:02:31;;;;;;;35.28;24.33;;;0.20;99.90;;;;;;3131044;28;20033;-73
2024/01/20 03:04:02;;;;;;;34.80;27.17;;;-0.80;99.90;;;;;;3129974;28;20109;-74
2024/01/20 03:05:33;;;;;;;43.95;26.38;;;-0.80;99.90;;;;;;3130971;28;20025;-74
2024/01/20 03:07:05;;;;;;;38.50;27.60;;;-0.40;99.90;;;;;;3129790;28;20021;-74
2024/01/20 03:08:36;;;;;;;29.33;24.50;;;-0.80;99.90;;;;;;3105069;28;20033;-74
2024/01/20 03:10:07;;;;;;;37.15;26.23;;;-0.30;99.90;;;;;;3100666;28;20064;-74
2024/01/20 03:11:38;;;;;;;40.28;28.00;;;-0.80;99.90;;;;;;3113791;28;20073;-74
2024/01/20 03:13:09;;;;;;;34.10;28.38;;;-0.80;99.90;;;;;;3117848;28;20029;-74
2024/01/20 03:14:40;;;;;;;38.50;28.27;;;-0.80;99.90;;;;;;3117588;28;20029;-74
2024/01/20 03:16:11;;;;;;;31.42;26.98;;;-0.80;99.90;;;;;;3129654;28;20029;-75
2024/01/20 03:17:42;;;;;;;37.80;26.88;;;-0.30;99.90;;;;;;3141409;28;20048;-75
2024/01/20 03:19:13;;;;;;;40.08;28.00;;;-0.90;99.90;;;;;;3116924;28;20308;-75
2024/01/20 03:20:43;;;;;;;33.50;26.55;;;-0.90;99.90;;;;;;3125553;28;20075;-76
2024/01/20 03:22:14;;;;;;;43.08;29.25;;;-0.90;99.90;;;;;;3129741;28;20029;-75
2024/01/20 03:23:45;;;;;;;32.55;22.15;;;-0.70;99.90;;;;;;3130092;28;20026;-74
2024/01/20 03:25:16;;;;;;;42.70;29.27;;;-0.90;99.90;;;;;;3128889;28;20200;-74
2024/01/20 03:26:47;;;;;;;40.35;27.52;;;-0.90;99.90;;;;;;3129460;28;20307;-74
2024/01/20 03:28:17;;;;;;;33.72;27.92;;;-0.90;99.90;;;;;;3128730;28;20025;-74
2024/01/20 03:29:48;;;;;;;38.38;27.42;;;-0.90;99.90;;;;;;3112702;28;20034;-75
2024/01/20 03:31:19;;;;;;;41.75;26.70;;;-1.00;99.90;;;;;;3126711;28;20072;-74
2024/01/20 03:32:51;;;;;;;35.25;26.05;;;-1.00;99.90;;;;;;3129596;28;20025;-74
2024/01/20 03:34:22;;;;;;;33.35;27.83;;;-1.00;99.90;;;;;;3128855;28;20123;-74
2024/01/20 03:35:53;;;;;;;37.05;27.52;;;-1.00;99.90;;;;;;3128037;28;20025;-74
2024/01/20 03:37:24;;;;;;;40.92;26.25;;;-1.00;99.90;;;;;;3129763;28;20055;-74
2024/01/20 03:38:55;;;;;;;39.88;25.10;;;-0.50;99.90;;;;;;3129665;28;20270;-74
2024/01/20 03:40:26;;;;;;;31.52;28.10;;;-1.00;99.90;;;;;;3129764;28;20025;-74
2024/01/20 03:41:57;;;;;;;37.85;27.90;;;-0.80;99.90;;;;;;3141022;28;20033;-74
2024/01/20 03:43:27;;;;;;;40.50;25.73;;;-1.00;99.90;;;;;;3133481;28;20222;-74
2024/01/20 03:44:58;;;;;;;46.38;29.63;;;-1.00;99.90;;;;;;3127275;28;20036;-74
2024/01/20 03:46:29;;;;;;;37.28;27.63;;;-0.90;99.90;;;;;;3129699;28;20036;-74
2024/01/20 03:48:00;;;;;;;29.55;24.98;;;-0.90;99.90;;;;;;3129436;28;20073;-74
2024/01/20 03:49:31;;;;;;;29.52;23.95;;;-1.00;99.90;;;;;;3116527;28;20077;-73
2024/01/20 03:51:03;;;;;;;36.20;26.75;;;-1.00;99.90;;;;;;3124698;28;20056;-74
2024/01/20 03:52:33;;;;;;;35.33;24.80;;;-1.00;99.90;;;;;;3128860;28;20069;-74
2024/01/20 03:54:04;;;;;;;38.88;26.75;;;-1.00;99.90;;;;;;3124721;28;20025;-75
2024/01/20 03:55:36;;;;;;;38.70;29.33;;;-1.00;99.90;;;;;;3128234;28;20025;-74
2024/01/20 03:57:07;;;;;;;31.70;24.75;;;-1.00;99.90;;;;;;3129669;28;20025;-74
2024/01/20 03:58:39;;;;;;;38.90;29.20;;;-1.00;99.90;;;;;;3128280;28;20021;-74
2024/01/20 04:00:10;;;;;;;31.50;24.25;;;-1.00;99.90;;;;;;3128793;28;20022;-73
2024/01/20 04:01:41;;;;;;;34.10;25.27;;;-1.00;99.90;;;;;;3116858;28;20026;-74
2024/01/20 04:03:12;;;;;;;29.70;25.90;;;-1.00;99.90;;;;;;3112412;28;20045;-74
2024/01/20 04:04:42;;;;;;;41.72;23.65;;;-1.00;99.90;;;;;;3111027;28;20029;-73
2024/01/20 04:06:13;;;;;;;33.80;27.77;;;0.10;99.90;;;;;;3120280;28;20066;-73
2024/01/20 04:07:44;;;;;;;37.95;23.85;;;0.10;99.90;;;;;;3125245;28;20022;-75
2024/01/20 04:09:15;;;;;;;25.70;22.67;;;-1.00;99.90;;;;;;3137235;28;20025;-74
2024/01/20 04:10:45;;;;;;;40.88;25.10;;;-1.00;99.90;;;;;;3133196;28;20030;-73
2024/01/20 04:12:17;;;;;;;34.38;24.95;;;-1.00;99.90;;;;;;3129170;28;20125;-73
2024/01/20 04:13:48;;;;;;;32.40;22.70;;;-1.00;99.90;;;;;;3129848;28;20075;-74
2024/01/20 04:15:19;;;;;;;33.40;27.48;;;-1.00;99.90;;;;;;3128051;28;20025;-73
2024/01/20 04:16:49;;;;;;;33.42;25.20;;;-1.00;99.90;;;;;;3128994;28;20029;-73
2024/01/20 04:18:20;;;;;;;35.38;25.40;;;-1.00;99.90;;;;;;3141045;28;20025;-73
2024/01/20 04:19:51;;;;;;;37.30;27.77;;;-1.00;99.90;;;;;;3128746;28;20033;-73
2024/01/20 04:21:22;;;;;;;36.15;25.08;;;-1.00;99.90;;;;;;3133909;28;20021;-73
2024/01/20 04:22:53;;;;;;;32.90;24.67;;;-1.00;99.90;;;;;;3141394;28;20025;-73
2024/01/20 04:24:24;;;;;;;35.10;26.25;;;-0.60;99.90;;;;;;3139455;28;20057;-77
2024/01/20 04:25:55;;;;;;;37.75;27.23;;;-0.60;99.90;;;;;;3117024;28;20030;-74
2024/01/20 04:27:26;;;;;;;30.80;22.80;;;-1.00;99.90;;;;;;3128481;28;20026;-73
2024/01/20 04:28:57;;;;;;;32.30;26.33;;;-1.00;99.90;;;;;;3115807;28;20076;-74
2024/01/20 04:30:28;;;;;;;32.97;24.27;;;-1.00;99.90;;;;;;3124668;28;20319;-74
2024/01/20 04:31:58;;;;;;;30.20;25.20;;;-1.00;99.90;;;;;;3125412;28;20042;-74
2024/01/20 04:33:30;;;;;;;34.17;26.48;;;-0.90;99.90;;;;;;3130739;28;20029;-74
2024/01/20 04:35:01;;;;;;;34.47;26.52;;;0.20;99.90;;;;;;3117208;28;20327;-73
2024/01/20 04:36:32;;;;;;;34.90;25.67;;;0.00;99.90;;;;;;3126833;28;20029;-74
2024/01/20 04:38:03;;;;;;;30.58;24.42;;;-0.30;99.90;;;;;;3143446;28;20032;-74
2024/01/20 04:39:34;;;;;;;34.08;26.85;;;-1.00;99.90;;;;;;3134960;28;20041;-74
2024/01/20 04:41:05;;;;;;;36.03;25.77;;;-1.10;99.90;;;;;;3126955;28;20092;-73
2024/01/20 04:42:36;;;;;;;30.45;23.63;;;0.00;99.90;;;;;;3126909;28;20088;-73
2024/01/20 04:44:07;;;;;;;36.75;26.73;;;-0.50;99.90;;;;;;3126863;28;20018;-73
2024/01/20 04:45:37;;;;;;;35.38;25.40;;;-1.00;99.90;;;;;;3122330;28;20041;-73
2024/01/20 04:47:08;;;;;;;33.92;25.30;;;-1.10;99.90;;;;;;3119645;28;20093;-73
2024/01/20 04:48:39;;;;;;;37.45;26.10;;;-1.00;99.90;;;;;;3151623;28;20028;-74
2024/01/20 04:50:10;;;;;;;36.67;25.88;;;-1.00;99.90;;;;;;3139780;28;20028;-73
2024/01/20 04:51:41;;;;;;;30.58;22.27;;;-1.00;99.90;;;;;;3131463;28;20071;-74
2024/01/20 04:53:11;;;;;;;39.33;28.38;;;-1.00;99.90;;;;;;3143001;28;20311;-75
2024/01/20 04:54:42;;;;;;;30.73;25.02;;;-0.10;99.90;;;;;;3134073;28;20033;-73
2024/01/20 04:56:13;;;;;;;34.20;29.27;;;-0.10;99.90;;;;;;3134560;28;20025;-73
2024/01/20 04:57:44;;;;;;;32.20;22.73;;;-1.00;99.90;;;;;;3106524;28;20042;-74
2024/01/20 04:59:15;;;;;;;36.78;25.27;;;-0.90;99.90;;;;;;3134919;28;20063;-73
2024/01/20 05:00:45;;;;;;;25.88;22.90;;;-0.80;99.90;;;;;;3134800;28;20109;-74
2024/01/20 05:02:16;;;;;;;38.28;25.85;;;-1.00;99.90;;;;;;3151428;28;20381;-74
2024/01/20 05:03:47;;;;;;;34.60;23.35;;;-1.10;99.90;;;;;;3139837;28;20036;-73
2024/01/20 05:05:18;;;;;;;38.22;25.52;;;-1.10;99.90;;;;;;3130197;28;20341;-73
2024/01/20 05:06:49;;;;;;;33.08;25.27;;;-0.10;99.90;;;;;;3138864;28;20025;-73
2024/01/20 05:08:20;;;;;;;28.48;23.92;;;-0.70;99.90;;;;;;3131526;28;20029;-74
2024/01/20 05:09:50;;;;;;;28.38;22.38;;;-0.30;99.90;;;;;;3142944;28;20099;-74
2024/01/20 05:11:21;;;;;;;30.70;23.15;;;-1.10;99.90;;;;;;3134493;28;20017;-73
2024/01/20 05:12:52;;;;;;;33.08;26.35;;;-1.10;99.90;;;;;;3130383;28;20042;-76
2024/01/20 05:14:23;;;;;;;27.33;22.23;;;-1.20;99.90;;;;;;3137916;28;20072;-74
2024/01/20 05:15:55;;;;;;;39.65;26.15;;;-1.20;99.90;;;;;;3135320;28;20079;-74
2024/01/20 05:17:25;;;;;;;25.20;22.40;;;-0.70;99.90;;;;;;3142762;28;20024;-73
2024/01/20 05:18:56;;;;;;;33.97;22.85;;;-1.00;99.90;;;;;;3118361;28;20144;-73
2024/01/20 05:20:27;;;;;;;32.10;24.17;;;-1.00;99.90;;;;;;3114125;28;20196;-73
2024/01/20 05:21:58;;;;;;;32.40;26.42;;;-1.20;99.90;;;;;;3126768;28;20096;-73
2024/01/20 05:23:28;;;;;;;31.58;25.30;;;-1.20;99.90;;;;;;3130808;28;20037;-73
2024/01/20 05:25:02;;;;;;;32.22;23.83;;;-1.30;99.90;;;;;;3130047;28;20063;-73
2024/01/20 05:26:33;;;;;;;30.52;25.05;;;-1.30;99.90;;;;;;3130983;28;20035;-74
2024/01/20 05:28:04;;;;;;;40.53;25.50;;;-0.30;99.90;;;;;;3131350;28;20079;-73
2024/01/20 05:29:35;;;;;;;24.70;19.65;;;-1.30;99.90;;;;;;3117700;28;20227;-74
2024/01/20 05:31:06;;;;;;;26.80;23.27;;;-1.30;99.90;;;;;;3122408;28;20088;-74
2024/01/20 05:32:40;;;;;;;28.27;22.17;;;-1.30;99.90;;;;;;3126235;28;20330;-74
2024/01/20 05:34:11;;;;;;;28.33;22.73;;;-0.40;99.90;;;;;;3139295;28;20037;-74
2024/01/20 05:35:41;;;;;;;25.48;22.48;;;-1.30;99.90;;;;;;3131413;28;20052;-73
2024/01/20 05:37:12;;;;;;;36.97;24.80;;;-1.10;99.90;;;;;;3142780;28;20248;-73
2024/01/20 05:38:43;;;;;;;30.02;23.15;;;-1.30;99.90;;;;;;3122072;28;20030;-74
2024/01/20 05:40:14;;;;;;;32.17;24.23;;;-1.30;99.90;;;;;;3147283;28;20043;-74
2024/01/20 05:41:45;;;;;;;42.03;29.00;;;-1.30;99.90;;;;;;3134432;28;20017;-74
2024/01/20 05:43:15;;;;;;;39.50;26.98;;;-0.90;99.90;;;;;;3130738;28;20056;-75
2024/01/20 05:44:46;;;;;;;39.85;25.83;;;-0.40;99.90;;;;;;3137079;28;20088;-74
2024/01/20 05:46:19;;;;;;;39.40;26.08;;;-0.30;99.90;;;;;;3125996;28;20131;-74
2024/01/20 05:47:50;;;;;;;39.50;25.08;;;-1.30;99.90;;;;;;3130448;28;20024;-74
2024/01/20 05:49:21;;;;;;;40.10;23.45;;;-1.30;99.90;;;;;;3130273;28;20327;-74
2024/01/20 05:50:52;;;;;;;29.08;24.98;;;-1.40;99.90;;;;;;3135322;28;20036;-73
2024/01/20 05:52:23;;;;;;;28.33;24.58;;;-0.90;99.90;;;;;;3129901;28;20045;-74
2024/01/20 05:53:53;;;;;;;35.13;26.27;;;-1.30;99.90;;;;;;3113858;28;20072;-74
2024/01/20 05:55:24;;;;;;;35.67;26.85;;;-0.90;99.90;;;;;;3124586;28;20047;-75
2024/01/20 05:56:55;;;;;;;38.38;25.52;;;-1.40;99.90;;;;;;3126055;28;20315;-75
2024/01/20 05:58:26;;;;;;;38.53;28.02;;;-0.90;99.90;;;;;;3124773;28;20053;-75
2024/01/20 05:59:57;;;;;;;31.10;24.42;;;-1.30;99.90;;;;;;3127517;28;20350;-73
2024/01/20 06:01:28;;;;;;;36.63;25.83;;;-1.40;99.90;;;;;;3130654;28;20025;-73
2024/01/20 06:02:59;;;;;;;30.50;24.85;;;-1.40;99.90;;;;;;3130763;28;20037;-73
2024/01/20 06:04:30;;;;;;;38.00;27.75;;;-0.30;99.90;;;;;;3141742;28;20047;-73
2024/01/20 06:06:01;;;;;;;37.10;27.13;;;-1.40;99.90;;;;;;3129865;28;20036;-74
2024/01/20 06:07:31;;;;;;;37.95;27.20;;;-0.90;99.90;;;;;;3125995;28;20029;-74
2024/01/20 06:09:02;;;;;;;43.42;26.90;;;-1.50;99.90;;;;;;3130474;28;20029;-73
2024/01/20 06:10:33;;;;;;;34.90;26.58;;;-1.40;99.90;;;;;;3142788;28;20025;-74
2024/01/20 06:12:04;;;;;;;42.53;26.92;;;-1.40;99.90;;;;;;3129996;28;20041;-74
2024/01/20 06:13:37;;;;;;;33.08;24.85;;;-1.40;99.90;;;;;;3138310;28;20045;-74
2024/01/20 06:15:08;;;;;;;34.90;28.73;;;-1.40;99.90;;;;;;3128688;28;20010;-73
2024/01/20 06:16:41;;;;;;;36.70;27.17;;;-1.50;99.90;;;;;;3130618;28;20076;-73
2024/01/20 06:18:12;;;;;;;36.22;27.45;;;-1.50;99.90;;;;;;3130978;28;20047;-74
2024/01/20 06:19:43;;;;;;;37.80;25.70;;;-0.90;99.90;;;;;;3129769;28;20405;-73
2024/01/20 06:21:21;;;;;;;34.63;26.00;;;-1.50;99.90;;;;;;3130699;28;20282;-76
2024/01/20 06:22:52;;;;;;;31.42;25.00;;;-1.50;99.90;;;;;;3130378;28;20025;-74
2024/01/20 06:24:23;;;;;;;31.13;22.73;;;-1.00;99.90;;;;;;3130536;28;20089;-73
2024/01/20 06:25:56;;;;;;;36.20;27.75;;;-1.50;99.90;;;;;;3118363;28;20041;-74
2024/01/20 06:27:30;;;;;;;42.70;26.45;;;-1.50;99.90;;;;;;3129864;28;20029;-74
2024/01/20 06:29:00;;;;;;;38.17;24.23;;;-1.60;99.90;;;;;;3120705;28;20350;-74
2024/01/20 06:30:32;;;;;;;37.17;26.25;;;-1.60;99.90;;;;;;3137854;28;20033;-73
2024/01/20 06:32:03;;;;;;;39.00;26.17;;;-1.60;99.90;;;;;;3126595;28;20041;-73
2024/01/20 06:33:34;;;;;;;36.75;27.30;;;-1.60;99.90;;;;;;3130328;28;20030;-75
2024/01/20 06:35:06;;;;;;;35.30;26.30;;;-0.70;99.90;;;;;;3129139;28;20052;-74
2024/01/20 06:36:38;;;;;;;32.85;27.63;;;-1.50;99.90;;;;;;3130264;28;20029;-74
2024/01/20 06:38:09;;;;;;;34.33;26.70;;;-1.60;99.90;;;;;;3130814;28;20301;-73
2024/01/20 06:39:41;;;;;;;38.83;24.35;;;-1.50;99.90;;;;;;3130190;28;20029;-74
2024/01/20 06:41:12;;;;;;;30.88;24.23;;;-1.60;99.90;;;;;;3129608;28;20311;-74
2024/01/20 06:42:43;;;;;;;32.15;26.30;;;-1.60;99.90;;;;;;3113666;28;20022;-73
2024/01/20 06:44:13;;;;;;;37.05;25.77;;;-1.60;99.90;;;;;;3146200;28;20056;-75
2024/01/20 06:45:45;;;;;;;35.78;27.30;;;-1.30;99.90;;;;;;3132302;28;20223;-74
2024/01/20 06:47:16;;;;;;;32.03;25.55;;;-1.60;99.90;;;;;;3125404;28;20026;-74
2024/01/20 06:48:47;;;;;;;36.78;29.10;;;-1.60;99.90;;;;;;3125253;28;20017;-73
2024/01/20 06:50:18;;;;;;;46.75;29.88;;;-1.60;99.90;;;;;;3129960;28;20025;-73
2024/01/20 06:51:49;;;;;;;32.03;28.05;;;-0.90;99.90;;;;;;3117132;28;20048;-73
2024/01/20 06:53:19;;;;;;;31.67;23.40;;;-1.50;99.90;;;;;;3123330;28;20026;-74
2024/01/20 06:54:50;;;;;;;33.15;27.50;;;-1.60;99.90;;;;;;3128670;28;20315;-73
2024/01/20 06:56:21;;;;;;;58.67;47.55;;;-1.60;99.90;;;;;;3126949;28;20060;-73
2024/01/20 06:57:52;;;;;;;64.68;51.05;;;-0.80;99.90;;;;;;3128939;28;20342;-72
2024/01/20 06:59:22;;;;;;;42.65;35.72;;;-1.50;99.90;;;;;;3128983;28;20037;-75
2024/01/20 07:00:53;;;;;;;34.47;30.23;;;-1.50;99.90;;;;;;3141273;28;20025;-75
2024/01/20 07:02:24;;;;;;;40.63;31.90;;;-1.30;99.90;;;;;;3129019;28;20037;-77
2024/01/20 07:03:55;;;;;;;60.88;50.33;;;-1.50;99.90;;;;;;3125216;28;20021;-76
2024/01/20 07:05:25;;;;;;;39.33;30.80;;;-1.10;99.90;;;;;;3140226;28;20033;-76
2024/01/20 07:06:56;;;;;;;30.25;23.73;;;-1.30;99.90;;;;;;3121103;28;20033;-75
2024/01/20 07:08:27;;;;;;;38.42;26.25;;;-1.50;99.90;;;;;;3121901;28;20033;-75
2024/01/20 07:09:58;;;;;;;32.80;25.33;;;-1.50;99.90;;;;;;3132045;28;20017;-77
2024/01/20 07:11:29;;;;;;;33.28;28.55;;;-1.60;99.90;;;;;;3136787;28;20024;-77
2024/01/20 07:13:00;;;;;;;33.00;26.20;;;-1.50;99.90;;;;;;3131666;28;20092;-75
2024/01/20 07:14:30;;;;;;;48.35;27.92;;;-1.60;99.90;;;;;;3114774;28;20025;-76
2024/01/20 07:16:11;;;;;;;34.95;29.05;;;-0.90;99.90;;;;;;3144325;28;20021;-78
2024/01/20 07:17:41;;;;;;;31.95;28.63;;;-1.60;99.90;;;;;;3136913;28;20021;-76
2024/01/20 07:19:12;;;;;;;39.25;27.40;;;-1.60;99.90;;;;;;3134421;28;20040;-82
2024/01/20 07:20:44;;;;;;;35.42;27.63;;;-1.60;99.90;;;;;;3117702;28;20029;-77
2024/01/20 07:22:15;;;;;;;33.42;28.60;;;-1.50;99.90;;;;;;3121968;28;20055;-77
2024/01/20 07:23:46;;;;;;;41.17;29.02;;;-1.50;99.90;;;;;;3111233;28;20022;-77
2024/01/20 07:25:20;;;;;;;47.53;28.10;;;-1.60;99.90;;;;;;3122692;28;20018;-77
2024/01/20 07:26:51;;;;;;;40.60;26.85;;;-1.50;99.90;;;;;;3139652;28;20032;-77
2024/01/20 07:28:21;;;;;;;40.50;28.80;;;-0.70;99.90;;;;;;3132605;28;20287;-77
2024/01/20 07:29:52;;;;;;;36.88;27.55;;;-1.60;99.90;;;;;;3129421;28;20041;-78
2024/01/20 07:31:24;;;;;;;46.70;30.27;;;-1.60;99.90;;;;;;3116990;28;20042;-78
2024/01/20 07:33:35;;;;;;;37.35;27.95;;;-1.60;99.90;;;;;;3089200;28;20243;-79
2024/01/20 07:35:08;;;;;;;43.30;28.50;;;-1.60;99.90;;;;;;3129587;28;20029;-78
2024/01/20 07:36:39;;;;;;;37.22;31.40;;;-1.60;99.90;;;;;;3103714;28;20096;-79
2024/01/20 07:38:11;;;;;;;39.58;31.60;;;-0.70;99.90;;;;;;3112228;28;20026;-79
2024/01/20 07:39:42;;;;;;;50.33;35.10;;;;;;;;;;3121038;28;20060;-81
2024/01/20 07:41:13;;;;;;;36.83;26.15;;;-1.60;99.90;;;;;;3096433;28;85248;-79
2024/01/20 07:42:44;;;;;;;37.42;31.30;;;-1.30;99.90;;;;;;3128340;28;20028;-78